createdAt,value
2018-03-28T00:01:52.910Z,43.17
2018-03-28T00:04:20.450Z,39.23
2018-03-28T00:06:47.946Z,41.60
2018-03-28T00:09:16.232Z,42.27
2018-03-28T00:11:43.729Z,43.40
2018-03-28T00:14:11.230Z,40.63
2018-03-28T00:16:39.514Z,46.80
2018-03-28T00:19:07.778Z,46.00
2018-03-28T00:21:36.061Z,56.03
2018-03-28T00:24:04.325Z,162.63
2018-03-28T00:26:32.617Z,54.30
2018-03-28T00:29:00.882Z,52.50
2018-03-28T00:31:28.402Z,48.73
2018-03-28T00:33:55.893Z,49.97
2018-03-28T00:36:23.393Z,53.63
2018-03-28T00:38:50.906Z,50.80
2018-03-28T00:41:18.403Z,54.07
2018-03-28T00:43:45.922Z,54.80
2018-03-28T00:46:14.391Z,50.90
2018-03-28T00:48:41.913Z,57.90
2018-03-28T00:51:21.487Z,51.17
2018-03-28T00:53:49.010Z,52.60
2018-03-28T00:56:16.558Z,62.70
2018-03-28T00:58:44.025Z,57.13
2018-03-28T01:01:11.548Z,55.67
2018-03-28T01:03:39.811Z,55.47
2018-03-28T01:06:07.330Z,58.03
2018-03-28T01:08:34.826Z,59.20
2018-03-28T01:11:02.341Z,56.33
2018-03-28T01:13:29.845Z,64.33
2018-03-28T01:15:57.379Z,60.40
2018-03-28T01:18:24.873Z,61.80
2018-03-28T01:20:52.450Z,59.30
2018-03-28T01:23:20.739Z,63.40
2018-03-28T01:25:48.230Z,67.33
2018-03-28T01:28:15.747Z,67.47
2018-03-28T01:30:44.006Z,63.87
2018-03-28T01:33:12.297Z,73.93
2018-03-28T01:35:40.553Z,76.50
2018-03-28T01:38:08.070Z,70.47
2018-03-28T01:40:35.562Z,71.93
2018-03-28T01:43:03.058Z,68.47
2018-03-28T01:45:30.578Z,63.30
2018-03-28T01:47:58.070Z,73.00
2018-03-28T01:50:25.591Z,68.80
2018-03-28T01:52:53.091Z,71.20
2018-03-28T01:55:20.611Z,77.00
2018-03-28T01:57:48.115Z,72.80
2018-03-28T02:00:15.638Z,77.50
2018-03-28T02:02:43.897Z,79.07
2018-03-28T02:05:12.162Z,72.40
2018-03-28T02:07:39.682Z,73.37
2018-03-28T02:10:07.190Z,80.20
2018-03-28T02:12:34.711Z,75.07
2018-03-28T02:15:02.211Z,68.00
2018-03-28T02:17:29.735Z,73.90
2018-03-28T02:19:57.234Z,78.23
2018-03-28T02:22:24.760Z,70.90
2018-03-28T02:24:52.258Z,75.90
2018-03-28T02:27:19.758Z,71.73
2018-03-28T02:29:47.279Z,70.63
2018-03-28T02:32:15.543Z,76.17
2018-03-28T02:34:43.067Z,75.13
2018-03-28T02:37:10.563Z,71.67
2018-03-28T02:39:38.082Z,77.97
2018-03-28T02:42:05.591Z,63.47
2018-03-28T02:44:33.886Z,74.10
2018-03-28T02:47:01.387Z,65.77
2018-03-28T02:49:28.887Z,70.23
2018-03-28T02:51:57.174Z,64.50
2018-03-28T02:54:24.670Z,62.30
2018-03-28T02:56:52.177Z,62.87
2018-03-28T02:59:20.435Z,68.27
2018-03-28T03:01:47.943Z,57.73
2018-03-28T03:04:15.433Z,65.63
2018-03-28T03:06:42.940Z,60.30
2018-03-28T03:09:16.114Z,56.80
2018-03-28T03:11:43.634Z,61.70
2018-03-28T03:14:11.183Z,60.40
2018-03-28T03:16:38.682Z,53.73
2018-03-28T03:19:06.202Z,46.83
2018-03-28T03:21:33.698Z,48.47
2018-03-28T03:24:01.218Z,44.17
2018-03-28T03:26:28.710Z,45.50
2018-03-28T03:28:56.225Z,41.07
2018-03-28T03:31:23.723Z,42.30
2018-03-28T03:33:51.217Z,39.10
2018-03-28T03:36:19.497Z,39.63
2018-03-28T03:38:47.754Z,38.33
2018-03-28T03:41:16.053Z,37.13
2018-03-28T03:43:43.546Z,41.93
2018-03-28T03:46:11.062Z,36.27
2018-03-28T03:48:39.321Z,37.67
2018-03-28T03:51:06.833Z,34.60
2018-03-28T03:53:34.321Z,37.37
2018-03-28T03:56:01.818Z,30.53
2018-03-28T03:58:29.941Z,32.30
2018-03-28T04:00:57.438Z,35.50
2018-03-28T04:03:25.721Z,35.60
2018-03-28T04:05:54.118Z,32.93
2018-03-28T04:08:21.634Z,30.50
2018-03-28T04:10:49.130Z,34.03
2018-03-28T04:13:16.626Z,28.80
2018-03-28T04:15:44.146Z,26.00
2018-03-28T04:18:12.076Z,25.07
2018-03-28T04:20:39.589Z,25.53
2018-03-28T04:23:07.080Z,24.93
2018-03-28T04:25:34.594Z,23.33
2018-03-28T04:28:02.086Z,24.77
2018-03-28T04:30:29.581Z,25.63
2018-03-28T04:32:57.866Z,19.43
2018-03-28T04:35:26.121Z,22.30
2018-03-28T04:37:53.633Z,24.13
2018-03-28T04:40:21.134Z,23.83
2018-03-28T04:42:48.653Z,21.27
2018-03-28T04:45:16.143Z,21.83
2018-03-28T04:47:43.641Z,22.43
2018-03-28T04:50:12.903Z,21.77
2018-03-28T04:52:40.408Z,23.83
2018-03-28T04:55:07.920Z,20.77
2018-03-28T04:57:35.413Z,20.50
2018-03-28T05:00:03.694Z,18.73
2018-03-28T05:02:31.186Z,17.80
2018-03-28T05:04:58.677Z,18.33
2018-03-28T05:07:27.686Z,19.60
2018-03-28T05:09:55.942Z,19.00
2018-03-28T05:12:23.463Z,18.80
2018-03-28T05:14:50.958Z,18.90
2018-03-28T05:17:18.710Z,18.60
2018-03-28T05:19:46.226Z,19.20
2018-03-28T05:22:13.717Z,24.67
2018-03-28T05:24:41.241Z,19.10
2018-03-28T05:27:08.737Z,19.20
2018-03-28T05:29:36.225Z,16.47
2018-03-28T05:32:03.746Z,18.83
2018-03-28T05:34:31.246Z,18.40
2018-03-28T05:36:59.530Z,18.40
2018-03-28T05:39:27.785Z,19.23
2018-03-28T05:41:55.277Z,17.80
2018-03-28T05:44:23.553Z,18.57
2018-03-28T05:46:51.848Z,19.77
2018-03-28T05:49:19.349Z,19.97
2018-03-28T05:51:46.842Z,20.63
2018-03-28T05:54:15.097Z,18.80
2018-03-28T05:56:42.609Z,20.60
2018-03-28T05:59:10.098Z,20.97
2018-03-28T06:01:37.627Z,18.43
2018-03-28T06:04:05.117Z,20.00
2018-03-28T06:06:32.631Z,18.10
2018-03-28T06:09:00.129Z,23.30
2018-03-28T06:11:27.626Z,23.90
2018-03-28T06:13:55.914Z,21.57
2018-03-28T06:16:23.409Z,26.20
2018-03-28T06:18:50.920Z,21.00
2018-03-28T06:21:19.182Z,21.17
2018-03-28T06:23:47.470Z,22.20
2018-03-28T06:26:15.858Z,25.53
2018-03-28T06:28:43.358Z,20.83
2018-03-28T06:31:10.875Z,26.90
2018-03-28T06:33:38.371Z,22.50
2018-03-28T06:36:05.889Z,27.50
2018-03-28T06:38:33.386Z,25.07
2018-03-28T06:41:00.907Z,21.33
2018-03-28T06:43:28.397Z,22.47
2018-03-28T06:45:55.890Z,24.13
2018-03-28T06:48:23.404Z,16.80
2018-03-28T06:50:50.897Z,15.63
2018-03-28T06:53:19.180Z,19.90
2018-03-28T06:55:46.675Z,17.17
2018-03-28T06:58:14.193Z,28.93
2018-03-28T07:00:41.686Z,14.93
2018-03-28T07:03:09.185Z,13.77
2018-03-28T07:05:36.695Z,11.83
2018-03-28T07:08:04.950Z,12.57
2018-03-28T07:10:32.462Z,10.20
2018-03-28T07:12:59.953Z,12.40
2018-03-28T07:15:27.470Z,12.80
2018-03-28T07:17:54.977Z,8.00
2018-03-28T07:20:22.462Z,7.70
2018-03-28T07:22:50.730Z,6.07
2018-03-28T07:25:18.990Z,6.83
2018-03-28T07:27:46.523Z,7.63
2018-03-28T07:30:14.052Z,6.00
2018-03-28T07:32:42.308Z,5.47
2018-03-28T07:35:10.562Z,6.10
2018-03-28T07:37:38.046Z,9.07
2018-03-28T07:40:06.319Z,6.50
2018-03-28T07:42:34.571Z,7.00
2018-03-28T07:45:02.086Z,22.10
2018-03-28T07:47:29.577Z,8.30
2018-03-28T07:49:57.089Z,7.93
2018-03-28T07:52:24.580Z,7.83
2018-03-28T07:54:52.090Z,7.57
2018-03-28T07:57:20.341Z,9.60
2018-03-28T07:59:47.826Z,8.00
2018-03-28T08:02:16.106Z,8.50
2018-03-28T08:04:44.354Z,8.83
2018-03-28T08:07:11.865Z,8.33
2018-03-28T08:09:39.361Z,8.90
2018-03-28T08:12:06.877Z,9.10
2018-03-28T08:14:34.366Z,7.80
2018-03-28T08:17:01.858Z,10.57
2018-03-28T08:19:30.136Z,9.67
2018-03-28T08:21:58.389Z,8.73
2018-03-28T08:24:25.899Z,8.63
2018-03-28T08:26:53.386Z,10.00
2018-03-28T08:29:21.746Z,8.63
2018-03-28T08:31:49.229Z,7.60
2018-03-28T08:34:16.717Z,8.57
2018-03-28T08:36:44.994Z,8.50
2018-03-28T08:39:12.484Z,10.37
2018-03-28T08:41:40.002Z,10.47
2018-03-28T08:44:07.494Z,9.73
2018-03-28T08:46:35.010Z,10.97
2018-03-28T08:49:02.501Z,11.13
2018-03-28T08:51:29.998Z,10.40
2018-03-28T08:53:57.512Z,9.40
2018-03-28T08:56:25.768Z,10.67
2018-03-28T08:58:53.278Z,9.10
2018-03-28T09:01:20.770Z,8.90
2018-03-28T09:03:48.282Z,10.37
2018-03-28T09:06:15.774Z,10.07
2018-03-28T09:08:43.290Z,25.97
2018-03-28T09:11:10.785Z,12.90
2018-03-28T09:13:38.273Z,10.07
2018-03-28T09:16:05.794Z,11.70
2018-03-28T09:18:33.281Z,9.13
2018-03-28T09:21:00.799Z,9.00
2018-03-28T09:23:28.290Z,7.97
2018-03-28T09:25:56.170Z,9.73
2018-03-28T09:28:23.666Z,9.27
2018-03-28T09:30:51.161Z,9.13
2018-03-28T09:33:18.677Z,7.53
2018-03-28T09:35:46.614Z,7.73
2018-03-28T09:38:15.638Z,12.67
2018-03-28T09:40:43.893Z,7.27
2018-03-28T09:43:12.453Z,7.37
2018-03-28T09:45:39.949Z,10.57
2018-03-28T09:48:08.205Z,9.67
2018-03-28T09:50:35.710Z,7.83
2018-03-28T09:53:03.207Z,8.30
2018-03-28T09:55:30.717Z,7.30
2018-03-28T09:57:58.211Z,8.83
2018-03-28T10:00:26.659Z,15.23
2018-03-28T10:02:59.804Z,6.50
2018-03-28T10:05:33.117Z,5.93
2018-03-28T10:08:01.373Z,6.57
2018-03-28T10:10:30.375Z,6.00
2018-03-28T10:12:57.885Z,5.87
2018-03-28T10:15:25.373Z,5.87
2018-03-28T10:17:52.881Z,9.47
2018-03-28T10:20:20.377Z,61.53
2018-03-28T10:22:47.885Z,4.70
2018-03-28T10:25:16.138Z,5.43
2018-03-28T10:27:43.650Z,4.63
2018-03-28T10:30:11.490Z,5.27
2018-03-28T10:32:39.744Z,7.00
2018-03-28T10:35:07.279Z,4.33
2018-03-28T10:37:34.761Z,4.90
2018-03-28T10:40:02.274Z,4.40
2018-03-28T10:42:29.765Z,6.77
2018-03-28T10:44:57.279Z,8.73
2018-03-28T10:47:24.774Z,4.60
2018-03-28T10:49:52.291Z,4.27
2018-03-28T10:52:19.794Z,6.93
2018-03-28T10:54:47.291Z,6.40
2018-03-28T10:57:15.567Z,5.40
2018-03-28T10:59:43.825Z,3.87
2018-03-28T11:02:11.342Z,4.77
2018-03-28T11:04:38.829Z,3.93
2018-03-28T11:07:06.340Z,3.83
2018-03-28T11:09:33.837Z,4.70
2018-03-28T11:12:01.354Z,4.40
2018-03-28T11:14:28.840Z,3.97
2018-03-28T11:16:56.349Z,3.93
2018-03-28T11:19:24.611Z,7.93
2018-03-28T11:21:52.101Z,4.00
2018-03-28T11:24:19.609Z,3.50
2018-03-28T11:26:47.102Z,14.23
2018-03-28T11:29:15.381Z,3.63
2018-03-28T11:31:43.641Z,3.40
2018-03-28T11:34:11.922Z,4.37
2018-03-28T11:36:40.182Z,7.43
2018-03-28T11:39:08.062Z,3.50
2018-03-28T11:41:36.318Z,3.77
2018-03-28T11:44:03.806Z,4.43
2018-03-28T11:46:32.082Z,4.33
2018-03-28T11:49:00.337Z,5.13
2018-03-28T11:51:27.889Z,3.70
2018-03-28T11:53:55.386Z,3.40
2018-03-28T11:56:22.903Z,3.87
2018-03-28T11:58:50.396Z,3.97
2018-03-28T12:01:18.673Z,4.03
2018-03-28T12:03:46.925Z,7.63
2018-03-28T12:06:14.417Z,4.67
2018-03-28T12:08:41.926Z,4.60
2018-03-28T12:11:09.417Z,3.93
2018-03-28T12:13:37.695Z,3.30
2018-03-28T12:16:05.946Z,4.50
2018-03-28T12:18:34.233Z,5.30
2018-03-28T12:21:01.727Z,11.00
2018-03-28T12:23:29.251Z,4.87
2018-03-28T12:25:56.746Z,3.73
2018-03-28T12:28:28.535Z,3.77
2018-03-28T12:30:56.053Z,7.37
2018-03-28T12:33:23.541Z,4.67
2018-03-28T12:35:51.072Z,5.27
2018-03-28T12:38:18.566Z,10.03
2018-03-28T12:40:46.078Z,6.73
2018-03-28T12:43:14.333Z,6.07
2018-03-28T12:45:41.892Z,3.20
2018-03-28T12:48:09.369Z,5.17
2018-03-28T12:50:37.649Z,6.57
2018-03-28T12:53:05.902Z,4.80
2018-03-28T12:55:33.402Z,3.50
2018-03-28T12:58:00.951Z,3.10
2018-03-28T13:00:28.489Z,6.10
2018-03-28T13:02:56.773Z,3.20
2018-03-28T13:05:25.034Z,3.33
2018-03-28T13:07:52.571Z,7.80
2018-03-28T13:10:20.062Z,11.90
2018-03-28T13:12:48.346Z,4.57
2018-03-28T13:15:17.464Z,9.27
2018-03-28T13:17:44.953Z,6.80
2018-03-28T13:20:13.161Z,3.97
2018-03-28T13:22:41.414Z,5.97
2018-03-28T13:25:08.928Z,3.73
2018-03-28T13:27:36.425Z,5.63
2018-03-28T13:30:03.942Z,3.57
2018-03-28T13:32:31.438Z,3.47
2018-03-28T13:34:59.850Z,6.73
2018-03-28T13:37:28.110Z,3.57
2018-03-28T13:39:55.604Z,4.30
2018-03-28T13:42:23.120Z,3.57
2018-03-28T13:44:50.610Z,6.10
2018-03-28T13:47:18.885Z,6.07
2018-03-28T13:49:47.133Z,5.63
2018-03-28T13:52:14.645Z,6.10
2018-03-28T13:54:42.133Z,3.80
2018-03-28T13:57:11.003Z,3.13
2018-03-28T13:59:38.493Z,3.47
2018-03-28T14:02:06.007Z,4.73
2018-03-28T14:04:33.502Z,2.70
2018-03-28T14:07:00.989Z,3.60
2018-03-28T14:09:28.501Z,7.20
2018-03-28T14:11:55.992Z,3.73
2018-03-28T14:14:23.505Z,8.43
2018-03-28T14:16:51.000Z,11.70
2018-03-28T14:19:18.514Z,8.80
2018-03-28T14:21:46.055Z,5.33
2018-03-28T14:24:13.545Z,3.87
2018-03-28T14:26:41.038Z,4.87
2018-03-28T14:29:08.551Z,13.50
2018-03-28T14:31:36.144Z,5.03
2018-03-28T14:34:03.638Z,6.60
2018-03-28T14:36:31.914Z,5.17
2018-03-28T14:39:00.173Z,3.87
2018-03-28T14:41:27.686Z,7.60
2018-03-28T14:43:55.178Z,5.50
2018-03-28T14:46:22.694Z,7.93
2018-03-28T14:48:50.194Z,4.20
2018-03-28T14:51:17.706Z,7.00
2018-03-28T14:53:45.193Z,5.03
2018-03-28T14:56:12.714Z,6.63
2018-03-28T14:58:40.209Z,4.90
2018-03-28T15:01:07.706Z,4.40
2018-03-28T15:03:35.217Z,5.50
2018-03-28T15:06:02.707Z,7.97
2018-03-28T15:08:30.226Z,4.43
2018-03-28T15:10:57.717Z,7.27
2018-03-28T15:13:25.226Z,4.80
2018-03-28T15:15:52.717Z,11.67
2018-03-28T15:18:20.226Z,6.10
2018-03-28T15:20:48.481Z,8.53
2018-03-28T15:23:15.978Z,10.80
2018-03-28T15:25:43.805Z,9.97
2018-03-28T15:28:11.293Z,6.17
2018-03-28T15:30:39.565Z,8.40
2018-03-28T15:33:07.813Z,7.50
2018-03-28T15:35:35.322Z,5.97
2018-03-28T15:38:02.821Z,7.63
2018-03-28T15:40:30.329Z,6.77
2018-03-28T15:42:57.809Z,7.90
2018-03-28T15:45:25.298Z,9.40
2018-03-28T15:47:52.811Z,11.30
2018-03-28T15:50:20.350Z,8.40
2018-03-28T15:52:48.178Z,10.17
2018-03-28T15:55:15.665Z,10.63
2018-03-28T15:57:43.942Z,10.83
2018-03-28T16:00:12.644Z,11.97
2018-03-28T16:02:40.154Z,8.70
2018-03-28T16:05:07.641Z,8.60
2018-03-28T16:07:35.925Z,11.60
2018-03-28T16:10:04.177Z,8.87
2018-03-28T16:12:31.661Z,11.63
2018-03-28T16:14:59.933Z,10.20
2018-03-28T16:17:28.190Z,7.47
2018-03-28T16:19:55.698Z,8.50
2018-03-28T16:22:23.186Z,6.33
2018-03-28T16:24:51.457Z,7.40
2018-03-28T16:27:18.941Z,8.63
2018-03-28T16:29:46.454Z,9.47
2018-03-28T16:32:13.949Z,8.33
2018-03-28T16:34:41.450Z,8.83
2018-03-28T16:37:08.937Z,13.00
2018-03-28T16:39:36.420Z,7.43
2018-03-28T16:42:03.921Z,7.80
2018-03-28T16:44:31.405Z,9.40
2018-03-28T16:46:58.924Z,7.27
2018-03-28T16:49:27.177Z,9.67
2018-03-28T16:51:56.207Z,13.27
2018-03-28T16:54:24.458Z,8.87
2018-03-28T16:56:51.966Z,6.67
2018-03-28T16:59:19.457Z,9.40
2018-03-28T17:01:46.984Z,8.53
2018-03-28T17:04:14.489Z,8.57
2018-03-28T17:06:42.238Z,6.50
2018-03-28T17:09:10.022Z,11.90
2018-03-28T17:11:37.512Z,9.20
2018-03-28T17:14:05.033Z,10.60
2018-03-28T17:16:33.322Z,10.43
2018-03-28T17:19:01.599Z,8.97
2018-03-28T17:21:29.858Z,10.60
2018-03-28T17:23:57.373Z,10.30
2018-03-28T17:26:24.857Z,9.37
2018-03-28T17:28:52.559Z,13.20
2018-03-28T17:31:20.813Z,13.23
2018-03-28T17:33:48.321Z,12.33
2018-03-28T17:36:15.822Z,11.03
2018-03-28T17:38:43.342Z,12.20
2018-03-28T17:41:10.830Z,12.80
2018-03-28T17:43:38.319Z,12.50
2018-03-28T17:46:06.598Z,13.87
2018-03-28T17:48:34.854Z,10.80
2018-03-28T17:51:02.367Z,8.73
2018-03-28T17:53:29.862Z,10.97
2018-03-28T17:55:57.378Z,18.33
2018-03-28T17:58:24.865Z,16.87
2018-03-28T18:00:52.362Z,37.57
2018-03-28T18:03:20.641Z,15.57
2018-03-28T18:05:48.898Z,11.80
2018-03-28T18:08:16.414Z,16.10
2018-03-28T18:10:43.909Z,111.23
2018-03-28T18:13:11.430Z,15.17
2018-03-28T18:15:38.922Z,23.37
2018-03-28T18:18:06.418Z,15.60
2018-03-28T18:20:34.970Z,13.83
2018-03-28T18:23:02.466Z,11.60
2018-03-28T18:25:29.985Z,11.03
2018-03-28T18:27:57.473Z,10.03
2018-03-28T18:30:25.749Z,8.13
2018-03-28T18:32:54.010Z,9.57
2018-03-28T18:35:21.522Z,11.43
2018-03-28T18:37:49.009Z,8.20
2018-03-28T18:40:16.498Z,7.63
2018-03-28T18:42:44.778Z,8.20
2018-03-28T18:45:13.030Z,7.13
2018-03-28T18:47:40.586Z,8.67
2018-03-28T18:50:08.045Z,6.87
2018-03-28T18:52:35.550Z,7.20
2018-03-28T18:55:03.034Z,7.53
2018-03-28T18:57:30.537Z,8.30
2018-03-28T18:59:58.813Z,9.33
2018-03-28T19:02:27.066Z,8.40
2018-03-28T19:04:54.578Z,7.93
2018-03-28T19:07:22.077Z,8.77
2018-03-28T19:09:49.590Z,8.47
2018-03-28T19:12:17.079Z,9.27
2018-03-28T19:14:44.585Z,8.83
2018-03-28T19:17:12.838Z,9.07
2018-03-28T19:19:40.330Z,10.10
2018-03-28T19:22:07.841Z,14.67
2018-03-28T19:24:35.348Z,10.93
2018-03-28T19:27:02.857Z,8.33
2018-03-28T19:29:31.114Z,8.70
2018-03-28T19:31:58.634Z,7.27
2018-03-28T19:34:26.895Z,7.20
2018-03-28T19:36:55.149Z,6.80
2018-03-28T19:39:22.658Z,7.50
2018-03-28T19:41:50.150Z,7.73
2018-03-28T19:44:17.661Z,7.27
2018-03-28T19:46:45.917Z,10.20
2018-03-28T19:49:13.433Z,11.17
2018-03-28T19:51:40.918Z,8.97
2018-03-28T19:54:09.449Z,10.23
2018-03-28T19:56:36.937Z,5.97
2018-03-28T19:59:04.421Z,7.13
2018-03-28T20:01:31.934Z,6.70
2018-03-28T20:03:59.416Z,6.20
2018-03-28T20:06:26.925Z,6.60
2018-03-28T20:08:55.169Z,7.23
2018-03-28T20:11:22.677Z,9.83
2018-03-28T20:13:50.166Z,7.70
2018-03-28T20:16:17.658Z,7.17
2018-03-28T20:18:45.174Z,7.57
2018-03-28T20:21:12.665Z,7.90
2018-03-28T20:23:40.173Z,7.47
2018-03-28T20:26:07.662Z,6.70
2018-03-28T20:28:35.170Z,7.80
2018-03-28T20:31:02.668Z,9.40
2018-03-28T20:33:30.157Z,10.33
2018-03-28T20:35:57.678Z,8.07
2018-03-28T20:38:25.161Z,7.20
2018-03-28T20:40:52.673Z,6.93
2018-03-28T20:43:20.157Z,7.30
2018-03-28T20:45:47.666Z,6.53
2018-03-28T20:48:15.913Z,7.03
2018-03-28T20:50:43.402Z,5.87
2018-03-28T20:53:11.677Z,7.13
2018-03-28T20:55:39.930Z,5.67
2018-03-28T20:58:08.306Z,4.70
2018-03-28T21:00:35.795Z,4.73
2018-03-28T21:03:04.074Z,4.60
2018-03-28T21:05:32.334Z,4.40
2018-03-28T21:07:59.843Z,4.70
2018-03-28T21:10:27.329Z,5.90
2018-03-28T21:12:54.837Z,4.93
2018-03-28T21:15:22.327Z,4.60
2018-03-28T21:17:49.817Z,4.27
2018-03-28T21:20:17.444Z,4.30
2018-03-28T21:22:45.000Z,3.90
2018-03-28T21:25:12.498Z,2.83
2018-03-28T21:27:39.981Z,3.70
2018-03-28T21:30:07.489Z,3.50
2018-03-28T21:32:34.978Z,3.80
2018-03-28T21:35:03.254Z,2.90
2018-03-28T21:37:30.741Z,3.00
2018-03-28T21:39:58.261Z,3.00
2018-03-28T21:42:25.753Z,3.03
2018-03-28T21:44:53.243Z,2.40
2018-03-28T21:47:20.754Z,2.80
2018-03-28T21:49:49.009Z,2.57
2018-03-28T21:52:16.517Z,2.80
2018-03-28T21:54:44.005Z,2.40
2018-03-28T21:57:11.513Z,2.80
2018-03-28T21:59:39.765Z,2.23
2018-03-28T22:02:08.050Z,2.47
2018-03-28T22:04:36.301Z,2.40
2018-03-28T22:07:03.789Z,2.27
2018-03-28T22:09:32.061Z,2.20
2018-03-28T22:12:00.310Z,2.27
2018-03-28T22:14:27.817Z,2.37
2018-03-28T22:16:55.306Z,2.33
2018-03-28T22:19:22.814Z,2.23
2018-03-28T22:21:51.065Z,6.03
2018-03-28T22:24:18.574Z,2.27
2018-03-28T22:26:46.060Z,2.10
2018-03-28T22:29:14.338Z,2.47
2018-03-28T22:31:41.829Z,2.77
2018-03-28T22:34:09.313Z,3.27
2018-03-28T22:36:36.825Z,2.23
2018-03-28T22:39:05.082Z,2.20
2018-03-28T22:41:32.594Z,2.73
2018-03-28T22:44:00.850Z,2.07
2018-03-28T22:46:28.365Z,2.10
2018-03-28T22:48:55.845Z,3.03
2018-03-28T22:51:23.354Z,2.00
2018-03-28T22:53:50.837Z,1.80
2018-03-28T22:56:18.350Z,2.33
2018-03-28T22:58:46.605Z,1.90
2018-03-28T23:01:14.096Z,1.80
2018-03-28T23:03:42.375Z,1.83
2018-03-28T23:06:10.630Z,2.13
2018-03-28T23:08:38.146Z,2.30
2018-03-28T23:11:05.629Z,2.40
2018-03-28T23:13:33.138Z,2.30
2018-03-28T23:16:00.625Z,2.63
2018-03-28T23:18:28.132Z,2.70
2018-03-28T23:20:56.386Z,2.80
2018-03-28T23:23:23.874Z,2.93
2018-03-28T23:25:52.163Z,2.50
2018-03-28T23:28:19.649Z,2.40
2018-03-28T23:30:47.158Z,2.80
2018-03-28T23:33:15.410Z,4.00
2018-03-28T23:35:42.921Z,2.93
2018-03-28T23:38:10.415Z,3.23
2018-03-28T23:40:37.897Z,3.63
2018-03-28T23:43:05.409Z,3.00
2018-03-28T23:45:32.900Z,3.60
2018-03-28T23:48:00.409Z,3.83
2018-03-28T23:50:27.898Z,3.73
2018-03-28T23:52:55.418Z,4.10
2018-03-28T23:55:22.905Z,3.77
2018-03-28T23:57:50.415Z,4.30
